Terminal Aerodrome Forecast
Issued by NWS

Home | Current Version | Previous Version | Text Only | Print | Product List | Glossary On
Versions: 1 2 3 4 5 6 7 8 9 10 11 12 13 14 15 16 17 18
320
FTUS43 KAPX 280520
TAFAPN
TAF
KAPN 280520Z 2806/0106 18004KT P6SM SCT100 BKN200
     FM281200 16005KT P6SM VCSH BKN100
     FM281500 15009KT 4SM -SHRA BR OVC025
     FM281600 15010KT 4SM -SHRA BR OVC008
     FM282200 18006KT 3SM BR VCSH OVC005
     FM010200 15005KT 1SM -SHRA BR OVC005 WS020/20030KT=

USA.gov is the U.S. government's official web portal to all federal, state and local government web resources and services.